Track Степанова Екатерина

Time Latitude Longitude Accuracy (66% radius in meters) Altitude (meters) Speed (km/hour) Bearing (degrees) Battery (%) GPS flag
08:36:15 60.370969 29.556364 8 83 0 203.66320800781 77 1 delete
08:36:02 60.370992 29.556388 4 83 0 203.66320800781 77 1 delete
08:35:50 60.370966 29.556400 4 82 0 128.60246276855 77 1 delete
08:35:37 60.370944 29.556378 6 69 0 128.60246276855 77 1 delete
08:35:24 60.370955 29.556357 6 74 0 128.60246276855 77 1 delete
08:35:13 60.370976 29.556368 6 76 0 128.60246276855 77 1 delete
08:35:11 60.370973 29.556379 6 76 0 128.60246276855 77 1 delete
08:34:58 60.370939 29.556418 6 65 0 185.86059570312 77 1 delete
08:34:53 60.370946 29.556440 6 63 0 208.18951416016 77 1 delete
08:34:46 60.370960 29.556464 4 68 0 208.18951416016 77 1 delete
08:34:34 60.370990 29.556419 8 62 0 208.18951416016 77 1 delete
08:34:33 60.370992 29.556410 8 65 0 208.18951416016 77 1 delete
08:34:20 60.371007 29.556349 4 76 0 216.69561767578 77 1 delete
08:34:11 60.371021 29.556347 6 75 0 216.69561767578 77 1 delete
08:34:07 60.371039 29.556356 6 74 0 216.69561767578 77 1 delete
08:33:58 60.371066 29.556370 8 73 0 216.69561767578 77 1 delete
08:33:52 60.371124 29.556392 6 78 0 26.191946029663 77 1 delete
08:33:46 60.371116 29.556387 6 82 0.37018904089928 26.191946029663 77 1 delete
08:33:42 60.371068 29.556346 6 82 0 342.11862182617 77 1 delete
08:33:39 60.371029 29.556325 8 78 0 346.6184387207 77 1 delete
08:33:35 60.371015 29.556309 4 78 0.19558010995388 353.88604736328 77 1 delete
08:33:25 60.371009 29.556331 6 77 0 36.953514099121 77 1 delete
08:33:13 60.370992 29.556329 4 75 0 32.301765441895 77 1 delete
08:33:07 60.370973 29.556339 16 76 0 220.11395263672 77 1 delete
08:33:00 60.370945 29.556316 8 75 0 24.279993057251 77 1 delete
08:32:47 60.370922 29.556288 6 76 0 43.335926055908 77 1 delete
08:32:42 60.370930 29.556305 8 74 0 43.335926055908 77 1 delete
08:32:34 60.370954 29.556308 6 75 0 193.4035949707 77 1 delete
08:32:26 60.370975 29.556317 8 77 0 164.71603393555 77 1 delete
08:32:21 60.370990 29.556333 4 73 0 161.34672546387 77 1 delete
08:32:07 60.371026 29.556359 4 83 0 161.34672546387 77 1 delete
08:32:02 60.371016 29.556360 8 83 0 161.34672546387 77 1 delete
08:31:56 60.370971 29.556353 6 81 0 161.34672546387 77 1 delete
08:31:54 60.370961 29.556343 6 81 0 161.34672546387 77 1 delete
08:31:42 60.370929 29.556314 6 77 0 161.34672546387 77 1 delete
08:31:29 60.370928 29.556315 8 77 0 207.33915710449 77 1 delete
08:31:16 60.370928 29.556309 8 76 0 197.08781433105 77 1 delete
08:31:15 60.370928 29.556310 6 75 0.33952966332436 197.08781433105 77 1 delete
08:31:06 60.370971 29.556335 6 75 0.047413412481546 195.04095458984 77 1 delete
08:31:04 60.370980 29.556332 6 76 0 206.06939697266 77 1 delete
08:30:52 60.371023 29.556347 4 82 0 197.18698120117 77 1 delete
08:30:45 60.371015 29.556371 6 82 0 197.18698120117 77 1 delete
08:30:39 60.370982 29.556354 6 81 0 197.18698120117 77 1 delete
08:30:26 60.370969 29.556320 6 72 0 302.12948608398 77 1 delete
08:30:16 60.370982 29.556306 6 71 0 302.12948608398 77 1 delete
08:30:14 60.370988 29.556299 6 72 0 302.12948608398 77 1 delete
08:30:01 60.370994 29.556308 8 75 0.27832677960396 46.092636108398 77 1 delete
08:29:48 60.371000 29.556310 6 77 0 186.59875488281 82 1 delete
08:29:35 60.371018 29.556314 4 79 0 8.1975250244141 82 1 delete
08:29:22 60.371026 29.556342 6 78 0 8.1975250244141 82 1 delete